FW6166 New Haven CT US current weather conditions

sailwx.info

Wind from 105 at 5 knots gusting 13

Air temperature 8.3° C
Dewpoint 0.8° C

Last reported at 2019-Dec-15 15:01 UTC.
Time now 2019-Dec-15 16:06 UTC

Location: N 41°18' W 072°55'.
View on Google Maps.

See reports from other nearby stations

  
Tides and Currents Weather Stations Pressure Air Temp Water Temp Dewpoint Dewpoint Depression Visibility Wind Speed Wind Dir Waves Ship Positions
date/time (UTC)wind fromknots sea level pressurealtimeterstation pressurevisibilityair tempwater tempwave heightnotes
2019-Dec-15 15:01 105 5 gusting 13 8.3
2019-Dec-15 14:56 117 10 gusting 15 8.3
2019-Dec-15 14:51 105 7 gusting 17 8.3
2019-Dec-15 14:46 103 8 gusting 13 8.3
2019-Dec-15 14:41 109 6 gusting 13 7.8
2019-Dec-15 14:36 106 7 gusting 15 7.8
2019-Dec-15 14:31 107 5 gusting 7 8.3
2019-Dec-15 14:26 114 9 gusting 17 7.8
2019-Dec-15 14:21 108 7 gusting 13 7.8
2019-Dec-15 14:16 132 7 gusting 13 7.8
2019-Dec-15 14:11 111 6 gusting 13 7.8
2019-Dec-15 14:06 111 6 gusting 12 7.8
2019-Dec-15 14:01 105 6 gusting 13 7.8
2019-Dec-15 13:56 108 5 gusting 10 7.8
2019-Dec-15 13:51 132 6 gusting 13 7.8
2019-Dec-15 13:46 098 6 gusting 12 7.8
2019-Dec-15 13:41 127 7 gusting 13 7.8
2019-Dec-15 13:36 114 6 gusting 13 7.8
2019-Dec-15 13:31 123 6 gusting 13 7.2
2019-Dec-15 13:26 115 7 gusting 13 7.2
2019-Dec-15 13:21 120 7 gusting 18 7.2
2019-Dec-15 13:16 116 9 gusting 17 7.2
2019-Dec-15 13:11 132 6 gusting 13 7.2
2019-Dec-15 13:06 125 4 gusting 17 7.2
2019-Dec-15 13:01 129 10 gusting 18 7.2
2019-Dec-15 12:56 122 9 gusting 14 7.2
2019-Dec-15 12:51 121 6 gusting 10 7.2
2019-Dec-15 12:46 120 7 gusting 14 7.2
2019-Dec-15 12:41 094 7 gusting 14 7.2
2019-Dec-15 12:36 137 13 gusting 20 7.2
2019-Dec-15 12:31 114 8 gusting 19 7.2
2019-Dec-15 12:26 129 6 gusting 17 7.2
2019-Dec-15 12:21 129 13 gusting 19 6.7
2019-Dec-15 12:16 108 9 gusting 13 6.7
2019-Dec-15 12:11 120 6 gusting 13 6.7
2019-Dec-15 12:06 106 8 gusting 13 6.7
2019-Dec-15 12:01 122 7 gusting 19 6.7
2019-Dec-15 11:56 144 10 gusting 20 6.7
2019-Dec-15 11:51 104 7 gusting 11 6.7
2019-Dec-15 11:46 140 7 gusting 19 6.7
2019-Dec-15 11:41 146 5 gusting 13 6.7
2019-Dec-15 11:36 109 5 gusting 13 6.7
2019-Dec-15 11:31 118 4 gusting 12 6.7
2019-Dec-15 11:26 137 6 gusting 15 6.7
2019-Dec-15 11:21 126 4 gusting 13 6.7
2019-Dec-15 11:16 131 7 gusting 13 6.7
2019-Dec-15 11:11 136 4 gusting 14 6.7
2019-Dec-15 11:06 100 6 gusting 15 6.7
2019-Dec-15 11:01 124 10 gusting 19 6.7
2019-Dec-15 10:56 101 8 gusting 12 6.7
2019-Dec-15 10:51 122 9 gusting 15 7.2
2019-Dec-15 10:46 114 7 gusting 17 7.2
2019-Dec-15 10:41 109 7 gusting 15 7.2
2019-Dec-15 10:36 110 7 gusting 19 7.2
2019-Dec-15 10:31 103 8 gusting 14 6.7
2019-Dec-15 10:26 096 8 gusting 13 7.2
2019-Dec-15 10:21 120 7 gusting 18 7.2
2019-Dec-15 10:16 113 6 gusting 15 6.7
2019-Dec-15 10:11 109 9 gusting 19 6.7
2019-Dec-15 10:06 107 8 gusting 15 7.2
2019-Dec-15 10:01 123 6 gusting 10 7.2
2019-Dec-15 09:56 114 5 gusting 12 7.2
2019-Dec-15 09:51 116 8 gusting 13 7.2
2019-Dec-15 09:46 159 9 gusting 17 7.2
2019-Dec-15 09:41 123 6 gusting 11 7.2
2019-Dec-15 09:36 124 6 gusting 17 7.2
2019-Dec-15 09:31 121 9 gusting 17 7.2
2019-Dec-15 09:26 117 7 gusting 15 7.2
2019-Dec-15 09:21 123 7 gusting 17 7.2
2019-Dec-15 09:16 142 7 gusting 22 7.2
2019-Dec-15 09:11 133 7 gusting 15 7.2
2019-Dec-15 09:06 130 6 gusting 10 6.7
2019-Dec-15 09:01 137 11 gusting 17 6.7
2019-Dec-15 08:56 098 10 gusting 19 6.7
2019-Dec-15 08:51 140 6 gusting 10 6.7
2019-Dec-15 08:46 148 7 gusting 17 6.7
2019-Dec-15 08:41 117 4 gusting 14 6.7
2019-Dec-15 08:36 141 4 gusting 13 6.7
2019-Dec-15 08:31 116 11 gusting 17 6.7
2019-Dec-15 08:26 099 4 gusting 13 6.7
2019-Dec-15 08:21 102 11 gusting 15 6.7
2019-Dec-15 08:16 135 7 gusting 13 6.7
2019-Dec-15 08:11 116 10 gusting 15 6.7
2019-Dec-15 08:06 095 7 gusting 15 6.7
2019-Dec-15 08:01 128 11 gusting 18 6.7
2019-Dec-15 07:56 109 6 gusting 13 7.2
2019-Dec-15 07:51 134 5 gusting 14 6.7
2019-Dec-15 07:46 129 10 gusting 17 6.7
2019-Dec-15 07:41 109 7 gusting 14 6.7
2019-Dec-15 07:36 128 9 gusting 14 6.7
2019-Dec-15 07:31 098 8 gusting 15 6.7
2019-Dec-15 07:26 143 6 gusting 12 6.7
2019-Dec-15 07:21 125 8 gusting 14 6.7
2019-Dec-15 07:16 122 4 gusting 17 6.7
2019-Dec-15 07:11 123 6 gusting 11 6.7
2019-Dec-15 07:06 103 8 gusting 13 6.7
2019-Dec-15 07:01 112 6 gusting 15 6.7
2019-Dec-15 06:56 092 6 gusting 13 6.7
2019-Dec-15 06:51 109 7 gusting 13 6.7
2019-Dec-15 06:46 126 8 gusting 13 6.7
2019-Dec-15 06:41 104 6 gusting 12 6.7
2019-Dec-15 06:36 115 7 gusting 13 6.7
2019-Dec-15 06:31 131 6 gusting 11 6.7
2019-Dec-15 06:26 109 8 gusting 14 6.7
2019-Dec-15 06:21 135 10 gusting 17 6.7
2019-Dec-15 06:16 098 8 gusting 15 6.7
2019-Dec-15 06:11 135 8 gusting 17 6.7
2019-Dec-15 06:06 112 4 gusting 11 6.7
2019-Dec-15 06:01 123 7 gusting 15 6.7
2019-Dec-15 05:56 132 7 gusting 17 6.7
2019-Dec-15 05:51 133 10 gusting 19 6.7
2019-Dec-15 05:46 131 5 gusting 15 6.7
2019-Dec-15 05:41 104 13 gusting 24 6.7
2019-Dec-15 05:36 133 6 gusting 17 6.7
2019-Dec-15 05:31 105 7 gusting 13 6.7
2019-Dec-15 05:26 118 5 gusting 15 6.7
2019-Dec-15 05:21 130 6 gusting 13 6.7
2019-Dec-15 05:16 103 5 gusting 10 7.2
2019-Dec-15 05:11 144 6 gusting 17 7.2
2019-Dec-15 05:06 129 8 gusting 13 7.2
2019-Dec-15 05:01 124 7 gusting 15 7.2
2019-Dec-15 04:56 118 4 gusting 10 7.2
2019-Dec-15 04:51 114 9 gusting 15 7.8
2019-Dec-15 04:46 087 11 gusting 17 7.8
2019-Dec-15 04:41 093 8 gusting 14 7.8
2019-Dec-15 04:36 125 9 gusting 19 8.3
2019-Dec-15 04:31 128 12 gusting 21 8.3
2019-Dec-15 04:26 091 13 gusting 20 9.4
2019-Dec-15 04:21 115 7 gusting 11 9.4
2019-Dec-15 04:16 118 6 gusting 15 9.4
2019-Dec-15 04:11 096 11 gusting 20 10.0
2019-Dec-15 04:01 108 10 gusting 19 10.0
2019-Dec-15 03:56 120 11 gusting 18 10.0
2019-Dec-15 03:51 111 7 gusting 13 10.0
2019-Dec-15 03:46 094 10 gusting 17 10.0
2019-Dec-15 03:41 094 10 gusting 13 10.0
2019-Dec-15 03:36 113 8 gusting 18 10.0
2019-Dec-15 03:31 089 7 gusting 14 10.0
2019-Dec-15 03:26 115 8 gusting 12 10.6
2019-Dec-15 03:21 092 11 gusting 18 10.6
2019-Dec-15 03:16 093 8 gusting 17 10.6
2019-Dec-15 03:11 097 7 gusting 13 10.6
2019-Dec-15 03:06 110 8 gusting 15 10.6
2019-Dec-15 03:01 103 10 gusting 22 10.6
2019-Dec-15 02:56 082 10 gusting 17 10.6
2019-Dec-15 02:51 087 8 gusting 19 10.6
2019-Dec-15 02:46 093 8 gusting 17 10.6
2019-Dec-15 02:41 105 10 gusting 19 10.6
2019-Dec-15 02:36 076 5 gusting 12 10.6
2019-Dec-15 02:31 091 8 gusting 14 10.6
2019-Dec-15 02:26 092 8 gusting 14 10.6
2019-Dec-15 02:21 075 7 gusting 15 10.6
2019-Dec-15 02:16 089 9 gusting 21 10.6
2019-Dec-15 02:11 105 6 gusting 17 10.6
2019-Dec-15 02:06 089 8 gusting 17 10.6
2019-Dec-15 02:01 094 9 gusting 17 10.6
2019-Dec-15 01:56 098 5 gusting 12 10.6
2019-Dec-15 01:51 106 7 gusting 17 10.6
2019-Dec-15 01:46 105 6 gusting 12 10.6
2019-Dec-15 01:41 102 4 gusting 10 10.6
2019-Dec-15 01:36 078 5 gusting 10 10.6
2019-Dec-15 01:31 085 4 gusting 10 10.6
2019-Dec-15 01:26 095 5 gusting 12 10.6
2019-Dec-15 01:21 093 7 gusting 12 10.6
2019-Dec-15 01:16 083 5 gusting 10 10.6
2019-Dec-15 01:11 100 8 gusting 15 10.6
2019-Dec-15 01:06 090 6 gusting 12 10.6
2019-Dec-15 01:01 060 7 gusting 14 10.6
2019-Dec-15 00:56 073 7 gusting 13 10.6
2019-Dec-15 00:51 080 10 gusting 19 10.6
2019-Dec-15 00:46 086 8 gusting 15 10.6
2019-Dec-15 00:41 102 6 gusting 17 10.0
2019-Dec-15 00:36 076 5 gusting 7 10.0
2019-Dec-15 00:31 083 5 gusting 10 10.0
2019-Dec-15 00:26 086 5 gusting 12 10.0
2019-Dec-15 00:21 068 5 gusting 11 10.0
2019-Dec-15 00:16 082 8 gusting 13 10.0
2019-Dec-15 00:11 085 5 gusting 10 10.0
2019-Dec-15 00:06 090 6 gusting 11 10.0
2019-Dec-15 00:01 073 6 gusting 10 10.0
2019-Dec-14 23:56 083 4 gusting 11 10.0
2019-Dec-14 23:51 063 5 gusting 12 10.0
2019-Dec-14 23:46 070 5 gusting 11 10.0
2019-Dec-14 23:41 088 4 gusting 8 10.6
2019-Dec-14 23:36 091 6 gusting 10 10.6
2019-Dec-14 23:31 094 5 gusting 12 10.6
2019-Dec-14 23:26 057 4 gusting 10 10.6
2019-Dec-14 23:21 036 4 gusting 12 10.6
2019-Dec-14 23:16 093 7 gusting 12 10.6
2019-Dec-14 23:11 092 8 gusting 13 10.6
2019-Dec-14 23:06 080 6 gusting 13 11.1
2019-Dec-14 23:01 081 6 gusting 13 11.1
2019-Dec-14 22:56 093 6 gusting 14 11.1
2019-Dec-14 22:51 086 7 gusting 17 11.7
2019-Dec-14 22:46 087 6 gusting 14 11.7
2019-Dec-14 22:41 083 6 gusting 13 11.7
2019-Dec-14 22:36 079 5 gusting 14 12.2
2019-Dec-14 22:31 078 6 gusting 15 12.2
2019-Dec-14 22:26 047 7 gusting 18 12.2
2019-Dec-14 22:21 087 8 gusting 19 12.2
2019-Dec-14 22:16 058 7 gusting 13 12.2
2019-Dec-14 22:11 071 8 gusting 14 12.2
2019-Dec-14 22:06 073 8 gusting 17 12.2
2019-Dec-14 22:01 058 7 gusting 18 12.8
2019-Dec-14 21:56 060 7 gusting 18 12.8
2019-Dec-14 21:51 107 7 gusting 15 12.8
2019-Dec-14 21:46 068 5 gusting 13 12.8
2019-Dec-14 21:41 063 4 gusting 11 12.8
2019-Dec-14 21:36 059 6 gusting 12 12.8
2019-Dec-14 21:31 055 6 gusting 13 12.8
2019-Dec-14 21:26 073 4 gusting 12 12.8
2019-Dec-14 21:21 086 6 gusting 11 12.8
2019-Dec-14 21:06 089 5 gusting 10 13.3
2019-Dec-14 21:01 064 5 gusting 11 13.3
2019-Dec-14 20:56 058 4 gusting 7 13.3
2019-Dec-14 20:51 059 5 gusting 10 12.8
2019-Dec-14 20:46 077 5 gusting 12 12.8
2019-Dec-14 20:41 082 5 gusting 8 12.8
2019-Dec-14 20:36 076 2 gusting 7 12.8
2019-Dec-14 20:31 066 2 gusting 6 12.2
2019-Dec-14 20:26 094 1 gusting 5 11.7
2019-Dec-14 20:21 057 1 gusting 2 10.6
2019-Dec-14 20:16 337 1 gusting 2 10.0
2019-Dec-14 20:11 269 2 gusting 5 8.9
2019-Dec-14 20:06 255 5 gusting 6 8.9
2019-Dec-14 20:01 252 5 gusting 7 8.9
2019-Dec-14 19:56 263 5 gusting 6 8.9
2019-Dec-14 19:51 265 5 gusting 7 8.9
2019-Dec-14 19:46 252 6 gusting 7 8.9
2019-Dec-14 19:41 253 5 gusting 6 8.9
2019-Dec-14 19:36 252 6 gusting 10 8.9
2019-Dec-14 19:31 257 5 gusting 8 8.9
2019-Dec-14 19:26 253 5 gusting 7 8.9
2019-Dec-14 19:21 258 5 gusting 7 8.9
2019-Dec-14 19:16 262 6 gusting 8 8.9
2019-Dec-14 19:11 246 3 gusting 7 8.9
2019-Dec-14 19:06 238 2 gusting 7 8.9
2019-Dec-14 19:01 237 5 gusting 6 8.9
2019-Dec-14 18:56 252 4 gusting 7 8.9
2019-Dec-14 18:51 247 4 gusting 6 8.3
2019-Dec-14 18:46 236 6 gusting 10 8.3
2019-Dec-14 18:41 243 5 gusting 6 8.3
2019-Dec-14 18:36 248 4 gusting 7 8.3
2019-Dec-14 18:31 261 6 gusting 8 8.3
2019-Dec-14 18:26 247 6 gusting 8 8.3
2019-Dec-14 18:21 262 6 gusting 7 8.3
2019-Dec-14 18:16 246 5 gusting 8 8.3
2019-Dec-14 18:11 242 4 gusting 7 8.3
2019-Dec-14 18:06 249 5 gusting 10 8.3
2019-Dec-14 18:01 245 6 gusting 10 8.3
2019-Dec-14 17:56 254 6 gusting 8 8.3
2019-Dec-14 17:51 245 4 gusting 6 8.3
2019-Dec-14 17:46 251 6 gusting 7 8.3
2019-Dec-14 17:41 242 4 gusting 6 8.3
2019-Dec-14 17:36 250 4 gusting 6 8.3
2019-Dec-14 17:31 247 6 gusting 8 7.8
2019-Dec-14 17:26 252 5 gusting 7 7.8
2019-Dec-14 17:21 259 6 gusting 8 7.8
2019-Dec-14 17:16 255 5 gusting 6 7.8
2019-Dec-14 17:11 254 4 gusting 8 7.8
2019-Dec-14 17:06 256 6 gusting 8 7.8
2019-Dec-14 17:01 259 5 gusting 8 7.8
2019-Dec-14 16:56 263 5 gusting 7 7.8
2019-Dec-14 16:51 251 5 gusting 7 7.8
2019-Dec-14 16:46 249 5 gusting 8 7.8
2019-Dec-14 16:41 256 5 gusting 10 7.8
2019-Dec-14 16:36 254 6 gusting 10 7.2
2019-Dec-14 16:31 255 6 gusting 8 7.2
2019-Dec-14 16:26 251 7 gusting 10 7.2
2019-Dec-14 16:21 250 8 gusting 10 7.2
2019-Dec-14 16:16 244 7 gusting 10 7.2
2019-Dec-14 16:11 240 7 gusting 10 7.2
2019-Dec-14 16:06 261 6 gusting 8 7.2
2019-Dec-14 16:01 233 6 gusting 8 7.2
2019-Dec-14 15:56 249 6 gusting 10 7.2
2019-Dec-14 15:51 253 6 gusting 10 7.2
2019-Dec-14 15:46 254 6 gusting 8 7.2
2019-Dec-14 15:41 251 6 gusting 10 6.7
2019-Dec-14 15:36 245 6 gusting 10 6.7
2019-Dec-14 15:31 255 6 gusting 8 6.7
2019-Dec-14 15:26 268 6 gusting 8 6.7
2019-Dec-14 15:21 253 6 gusting 10 6.7
2019-Dec-14 15:16 249 6 gusting 8 6.7
2019-Dec-14 15:11 236 7 gusting 10 6.7
2019-Dec-14 15:06 253 8 gusting 11 6.7
2019-Dec-14 15:01 259 8 gusting 11 6.7
2019-Dec-14 14:56 252 9 gusting 12 6.7
2019-Dec-14 14:51 257 10 gusting 12 6.7
2019-Dec-14 14:46 253 7 gusting 10 6.7
2019-Dec-14 14:41 246 8 gusting 12 6.7
2019-Dec-14 14:36 249 9 gusting 12 6.7
2019-Dec-14 14:31 257 8 gusting 11 6.7
2019-Dec-14 14:26 262 6 gusting 10 6.7
2019-Dec-14 14:21 263 6 gusting 10 6.7
2019-Dec-14 14:16 243 8 gusting 12 6.7
2019-Dec-14 14:11 256 8 gusting 12 6.7
2019-Dec-14 14:06 247 7 gusting 12 6.7
2019-Dec-14 14:01 256 10 gusting 13 6.7
2019-Dec-14 13:56 255 7 gusting 10 6.1
2019-Dec-14 13:51 262 7 gusting 10 6.1
2019-Dec-14 13:46 267 6 gusting 10 6.1
2019-Dec-14 13:41 258 7 gusting 10 6.1
2019-Dec-14 13:36 250 8 gusting 11 6.1
2019-Dec-14 13:31 244 7 gusting 10 6.1
2019-Dec-14 13:26 244 7 gusting 11 6.1
2019-Dec-14 13:21 262 6 gusting 11 6.1
2019-Dec-14 13:16 253 7 gusting 12 6.1
2019-Dec-14 13:11 242 8 gusting 11 6.1
2019-Dec-14 13:06 253 7 gusting 11 6.1
2019-Dec-14 13:01 234 8 gusting 13 6.1
2019-Dec-14 12:56 249 8 gusting 12 6.1
2019-Dec-14 12:51 264 7 gusting 12 6.1
2019-Dec-14 12:46 240 8 gusting 12 6.1
2019-Dec-14 12:41 243 8 gusting 12 6.1
2019-Dec-14 12:36 268 10 gusting 13 6.1
2019-Dec-14 12:31 251 7 gusting 15 6.1
2019-Dec-14 12:26 254 7 gusting 11 6.1
2019-Dec-14 12:21 247 9 gusting 13 6.1
2019-Dec-14 12:16 257 9 gusting 12 6.1
2019-Dec-14 12:11 249 9 gusting 12 6.1
2019-Dec-14 12:06 266 8 gusting 11 6.1
2019-Dec-14 12:01 242 9 gusting 13 6.1
2019-Dec-14 11:56 245 8 gusting 13 6.1
2019-Dec-14 11:51 261 7 gusting 12 6.1
2019-Dec-14 11:46 257 7 gusting 12 6.1
2019-Dec-14 11:41 248 8 gusting 12 6.1
2019-Dec-14 11:36 257 9 gusting 11 6.1
2019-Dec-14 11:31 260 9 gusting 13 6.1
2019-Dec-14 11:26 252 8 gusting 12 6.1
2019-Dec-14 11:21 245 6 gusting 10 6.1
2019-Dec-14 10:56 253 7 gusting 11 6.7
2019-Dec-14 10:51 253 7 gusting 12 6.1
2019-Dec-14 10:46 253 8 gusting 12 6.7
2019-Dec-14 10:41 252 6 gusting 11 6.1
2019-Dec-14 10:36 235 8 gusting 15 6.1
2019-Dec-14 10:31 254 8 gusting 13 6.1
2019-Dec-14 10:26 250 10 gusting 17 6.1
2019-Dec-14 10:21 246 8 gusting 13 6.1
2019-Dec-14 10:16 250 8 gusting 13 6.1
2019-Dec-14 10:11 258 8 gusting 12 6.1
2019-Dec-14 10:06 250 8 gusting 13 6.1
2019-Dec-14 10:01 260 7 gusting 12 6.1
2019-Dec-14 09:56 253 8 gusting 11 6.1
2019-Dec-14 09:51 256 7 gusting 11 6.1
2019-Dec-14 09:46 251 8 gusting 11 6.1
2019-Dec-14 09:41 265 7 gusting 11 6.1
2019-Dec-14 09:36 251 10 gusting 13 6.1
2019-Dec-14 09:31 264 10 gusting 12 6.1
2019-Dec-14 09:26 266 9 gusting 13 6.1
2019-Dec-14 09:21 247 8 gusting 12 6.1
2019-Dec-14 09:01 273 2 gusting 6 6.1
2019-Dec-14 08:51 240 9 gusting 13 6.1
2019-Dec-14 08:46 251 8 gusting 12 6.1
2019-Dec-14 08:41 258 7 gusting 13 6.1
2019-Dec-14 08:36 259 9 gusting 15 6.1
2019-Dec-14 08:31 241 8 gusting 13 6.1
2019-Dec-14 08:26 258 11 gusting 15 6.1
2019-Dec-14 08:21 258 13 gusting 18 6.1
2019-Dec-14 08:16 254 13 gusting 18 6.1
2019-Dec-14 08:11 255 15 gusting 18 6.1
2019-Dec-14 08:06 257 10 gusting 13 6.1
2019-Dec-14 08:01 252 8 gusting 13 6.1
2019-Dec-14 07:56 247 11 gusting 14 6.1
2019-Dec-14 07:51 263 10 gusting 13 6.1
2019-Dec-14 07:46 257 11 gusting 14 6.1
2019-Dec-14 07:41 255 12 gusting 15 6.1
2019-Dec-14 07:36 258 11 gusting 17 5.6
2019-Dec-14 07:31 249 11 gusting 15 5.6
2019-Dec-14 07:26 274 12 gusting 17 5.6
2019-Dec-14 07:21 259 12 gusting 17 5.6
2019-Dec-14 07:16 252 9 gusting 15 5.6
2019-Dec-14 07:11 251 8 gusting 15 5.6
2019-Dec-14 07:06 264 10 gusting 17 5.6
2019-Dec-14 07:01 255 11 gusting 15 5.0
2019-Dec-14 06:56 259 11 gusting 14 5.0
2019-Dec-14 06:51 259 9 gusting 12 5.0
2019-Dec-14 06:46 259 9 gusting 13 5.0
2019-Dec-14 06:41 254 8 gusting 12 5.0
2019-Dec-14 06:36 260 10 gusting 12 5.0
2019-Dec-14 06:31 259 9 gusting 12 5.0
2019-Dec-14 06:26 258 8 gusting 12 5.0
2019-Dec-14 06:21 253 7 gusting 11 5.0
2019-Dec-14 06:16 251 6 gusting 10 5.0
2019-Dec-14 06:11 256 6 gusting 11 5.0
2019-Dec-14 06:06 253 6 gusting 13 5.0
2019-Dec-14 06:01 249 5 gusting 10 4.4
2019-Dec-14 05:56 247 7 gusting 12 4.4
2019-Dec-14 05:51 250 8 gusting 12 4.4
2019-Dec-14 05:46 262 7 gusting 11 4.4
2019-Dec-14 05:41 263 10 gusting 13 4.4
2019-Dec-14 05:36 264 7 gusting 10 4.4
2019-Dec-14 05:31 253 8 gusting 11 4.4
2019-Dec-14 05:26 261 8 gusting 11 4.4
2019-Dec-14 05:21 259 9 gusting 11 4.4
2019-Dec-14 05:16 257 10 gusting 11 3.9
2019-Dec-14 05:11 245 8 gusting 10 3.9
2019-Dec-14 05:06 261 5 gusting 10 3.9
2019-Dec-14 05:01 256 7 gusting 10 3.9
2019-Dec-14 04:56 262 7 gusting 10 3.9
2019-Dec-14 04:51 263 7 gusting 10 3.9
2019-Dec-14 04:46 250 6 gusting 10 3.9
2019-Dec-14 04:41 244 7 gusting 10 3.9
2019-Dec-14 04:36 257 7 gusting 12 3.3
2019-Dec-14 04:31 250 7 gusting 10 3.3
2019-Dec-14 04:26 264 7 gusting 11 3.3
2019-Dec-14 04:21 251 8 gusting 12 3.3
2019-Dec-14 04:16 263 8 gusting 10 3.3
2019-Dec-14 04:11 256 8 gusting 11 3.3
2019-Dec-14 04:06 260 7 gusting 10 3.3
2019-Dec-14 04:01 271 6 gusting 10 3.3
2019-Dec-14 03:56 252 8 gusting 11 3.3
2019-Dec-14 03:51 255 6 gusting 10 3.3
2019-Dec-14 03:46 251 7 gusting 11 2.8
2019-Dec-14 03:41 261 6 gusting 11 2.8
2019-Dec-14 03:36 267 6 gusting 8 2.8
2019-Dec-14 03:31 258 6 gusting 10 2.8
2019-Dec-14 03:26 265 5 gusting 10 2.8
2019-Dec-14 03:21 268 6 gusting 8 2.8
2019-Dec-14 03:16 250 7 gusting 10 2.8
2019-Dec-14 03:11 292 5 gusting 8 2.8
2019-Dec-14 03:06 254 6 gusting 10 2.2
2019-Dec-14 03:01 269 6 gusting 8 2.2
2019-Dec-14 02:56 255 6 gusting 7 2.2
2019-Dec-14 02:51 254 5 gusting 8 2.2
2019-Dec-14 02:46 262 5 gusting 8 2.2
2019-Dec-14 02:41 251 6 gusting 10 2.2
2019-Dec-14 02:36 263 6 gusting 10 2.2
2019-Dec-14 02:31 254 7 gusting 8 2.2
2019-Dec-14 02:26 255 6 gusting 10 2.2
2019-Dec-14 02:21 250 7 gusting 8 2.2
2019-Dec-14 02:16 255 6 gusting 10 1.7
2019-Dec-14 02:11 254 6 gusting 8 1.7
2019-Dec-14 02:06 252 7 gusting 10 1.7
2019-Dec-14 02:01 256 7 gusting 10 1.7
2019-Dec-14 01:56 252 7 gusting 10 1.7
2019-Dec-14 01:51 263 8 gusting 10 1.7
2019-Dec-14 01:46 249 7 gusting 10 1.7
2019-Dec-14 01:41 255 7 gusting 10 1.7
2019-Dec-14 01:36 260 6 gusting 10 1.7
2019-Dec-14 01:31 254 7 gusting 10 1.7
2019-Dec-14 01:26 257 6 gusting 10 1.7
2019-Dec-14 01:21 256 6 gusting 10 1.7
2019-Dec-14 01:16 256 6 gusting 10 1.7
2019-Dec-14 01:11 256 6 gusting 10 1.1
2019-Dec-14 01:06 256 6 gusting 10 1.1
2019-Dec-14 01:01 260 6 gusting 10 1.1
2019-Dec-14 00:56 253 7 gusting 10 1.1
2019-Dec-14 00:51 256 7 gusting 10 1.1
2019-Dec-14 00:46 248 7 gusting 10 1.1
2019-Dec-14 00:41 261 8 gusting 11 1.1
2019-Dec-14 00:36 249 10 gusting 12 1.1
2019-Dec-14 00:31 251 7 gusting 11 1.1
2019-Dec-14 00:26 262 8 gusting 10 1.1
2019-Dec-14 00:21 255 7 gusting 11 1.1
2019-Dec-14 00:16 259 8 gusting 11 1.1
2019-Dec-14 00:11 261 6 gusting 11 1.1
2019-Dec-14 00:06 258 7 gusting 12 1.1
2019-Dec-14 00:01 251 7 gusting 10 1.1
2019-Dec-13 23:56 256 8 gusting 10 1.1
2019-Dec-13 23:51 261 8 gusting 11 1.1
2019-Dec-13 23:46 253 8 gusting 11 1.1
2019-Dec-13 23:41 266 9 gusting 13 1.1
2019-Dec-13 23:36 262 5 gusting 10 1.1
2019-Dec-13 23:31 259 8 gusting 13 1.1
2019-Dec-13 23:26 253 7 gusting 10 1.1
2019-Dec-13 23:21 259 7 gusting 10 1.1
2019-Dec-13 23:16 257 8 gusting 11 1.1
2019-Dec-13 23:11 254 8 gusting 11 1.1
2019-Dec-13 23:06 265 8 gusting 12 1.1
2019-Dec-13 23:01 256 7 gusting 10 1.1
2019-Dec-13 22:56 257 10 gusting 12 1.1
2019-Dec-13 22:51 260 9 gusting 12 1.1
2019-Dec-13 22:46 255 8 gusting 12 1.1
2019-Dec-13 22:41 257 8 gusting 11 1.1
2019-Dec-13 22:36 260 8 gusting 11 1.1
2019-Dec-13 22:31 254 8 gusting 11 1.1
2019-Dec-13 22:26 257 7 gusting 11 1.1
2019-Dec-13 22:21 248 8 gusting 13 1.1
2019-Dec-13 22:16 253 8 gusting 13 1.1
2019-Dec-13 22:11 263 7 gusting 11 1.1
2019-Dec-13 22:06 253 8 gusting 12 1.1
2019-Dec-13 22:01 258 9 gusting 12 1.1
2019-Dec-13 21:56 253 8 gusting 12 1.1
2019-Dec-13 21:51 255 8 gusting 12 1.1
2019-Dec-13 21:46 269 8 gusting 13 1.1
2019-Dec-13 21:41 261 6 gusting 11 1.1
2019-Dec-13 21:36 252 9 gusting 13 1.1
2019-Dec-13 21:31 258 7 gusting 12 1.1
2019-Dec-13 21:26 255 9 gusting 13 1.1
2019-Dec-13 21:21 255 8 gusting 12 1.1
2019-Dec-13 21:16 256 10 gusting 11 1.1
2019-Dec-13 21:11 262 8 gusting 11 1.1
2019-Dec-13 21:06 254 8 gusting 12 1.1
2019-Dec-13 21:01 259 7 gusting 10 1.1
2019-Dec-13 20:56 262 7 gusting 12 1.1
2019-Dec-13 20:51 254 8 gusting 12 1.1
2019-Dec-13 20:46 255 8 gusting 11 1.1
2019-Dec-13 20:41 256 8 gusting 11 0.6
2019-Dec-13 20:36 259 8 gusting 11 0.6
2019-Dec-13 20:31 253 7 gusting 10 0.6
2019-Dec-13 20:26 257 7 gusting 11 0.6
2019-Dec-13 20:21 261 8 gusting 11 0.6
2019-Dec-13 20:16 262 7 gusting 10 0.6
2019-Dec-13 20:11 257 8 gusting 10 0.6
2019-Dec-13 20:06 261 7 gusting 10 0.6
2019-Dec-13 20:01 258 7 gusting 11 0.6
2019-Dec-13 19:56 259 6 gusting 8 0.6
2019-Dec-13 19:51 259 6 gusting 10 0.6
2019-Dec-13 19:46 253 7 gusting 10 0.6
2019-Dec-13 19:41 260 7 gusting 10 0.6
2019-Dec-13 19:36 265 7 gusting 10 0.6
2019-Dec-13 19:31 253 7 gusting 10 0.6
2019-Dec-13 19:26 265 6 gusting 7 0.6
2019-Dec-13 19:21 247 7 gusting 10 -0.0
2019-Dec-13 19:16 260 6 gusting 7 -0.0
2019-Dec-13 19:11 256 7 gusting 10 -0.0
2019-Dec-13 19:06 260 6 gusting 11 -0.0
2019-Dec-13 19:01 254 6 gusting 10 -0.0
2019-Dec-13 18:56 263 6 gusting 10 -0.0
2019-Dec-13 18:51 246 6 gusting 10 -0.0
2019-Dec-13 18:46 255 7 gusting 10 -0.0
2019-Dec-13 18:41 250 8 gusting 10 -0.0
2019-Dec-13 18:36 261 7 gusting 10 -0.0
2019-Dec-13 18:31 253 8 gusting 11 -0.0
2019-Dec-13 18:26 261 7 gusting 10 -0.0
2019-Dec-13 18:21 256 7 gusting 10 -0.0
2019-Dec-13 18:16 257 8 gusting 10 -0.0
2019-Dec-13 18:11 246 7 gusting 11 -0.0
2019-Dec-13 18:06 251 6 gusting 10 -0.0
2019-Dec-13 18:01 249 6 gusting 8 -0.0
2019-Dec-13 17:56 255 6 gusting 10 -0.0
2019-Dec-13 17:51 249 7 gusting 10 -0.6
2019-Dec-13 17:46 261 6 gusting 10 -0.6
2019-Dec-13 17:41 249 6 gusting 10 -0.6
2019-Dec-13 17:36 255 6 gusting 11 -0.6
2019-Dec-13 17:31 263 6 gusting 12 -0.6
2019-Dec-13 17:26 260 7 gusting 13 -0.6
2019-Dec-13 17:21 265 8 gusting 12 -0.6
2019-Dec-13 17:16 261 7 gusting 13 -0.6
2019-Dec-13 17:11 262 8 gusting 12 -0.0
2019-Dec-13 17:06 252 9 gusting 12 -0.0
2019-Dec-13 17:01 260 10 gusting 13 -0.0
2019-Dec-13 16:56 273 8 gusting 12 -0.0
2019-Dec-13 16:51 253 9 gusting 12 -0.0
2019-Dec-13 16:46 257 9 gusting 11 -0.0
2019-Dec-13 16:41 262 7 gusting 11 -0.6
2019-Dec-13 16:36 252 9 gusting 13 -0.6
2019-Dec-13 16:31 263 8 gusting 11 -0.6
2019-Dec-13 16:26 259 7 gusting 12 -0.6
2019-Dec-13 16:21 259 7 gusting 13 -0.6
2019-Dec-13 16:16 258 7 gusting 12 -0.6
2019-Dec-13 16:11 264 9 gusting 12 -0.6
2019-Dec-13 16:06 251 9 gusting 12 -0.6
2019-Dec-13 16:01 256 8 gusting 11 -0.6